Accueil
METAR-TAF:

METAR-TAF

Aéroports :

Aéroport international de Zurich

Zurich, Suisse

latitude: 47-29N, longitude: 008-32E, altitude: 436 m

Observation

Le bulletin a été fait il y a 35 minutes, à 01:50 UTC
Vent 3 kt de nord/nord-ouest
Température 17°C
Humidité 88%
Pression 1022 hPa
Visibilité 10 km ou plus
Quelques nuages à une hauteur de 5000 ft

METAR: LSZH 190150Z 34003KT 9999 FEW050 17/15 Q1022 NOSIG

Heure: 04:25 (02:25 UTC)

Prévision

Le bulletin a été fait il y a 3 heures et 0 minutes, à 23:25 UTC
Prévision valable du 19 à 00 UTC au 20 à 06 UTC
Vent 2 kt de direction variable
Visibilité 10 km ou plus
Quelques nuages à une hauteur de 5000 ft

TAF: LSZH 182325Z 1900/2006 VRB02KT 9999 FEW050 TX29/1915Z TN16/1904Z TN15/2004Z

Observations et prévisions météorologiques de plus de 4000 aéroports (messages METAR et TAF).

Les stations disponibles sont représentées par des disques jaunes et rouges sur la carte.

Passer la souris dessus pour voir le nom de la station.

Cliquer dessus pour voir les observations et prévisions météorologiques.

Pour changer de carte: cliquez sur les boutons verts avec une croix noire pour zoomer, sur le bouton vert avec un tiret pour effectuer un zoom arrière, ou sur les flèches vertes pour les cartes adjacentes.


METAR-TAF: